Terminal Aerodrome Forecast
Issued by NWS

Home | Current Version | Previous Version | Graphics & Text | Print | Product List | Glossary On
Versions: 1 2 3 4 5 6 7 8 9 10 11 12 13 14 15 16 17 18 19 20 21 22 23 24 25 26 27
000
FTUS43 KTOP 242126 AAA
TAFFOE
TAF AMD
KFOE 242126Z 2421/2518 15010KT P6SM VCTS SCT035CB BKN100
     FM242300 12009KT P6SM -TSRA BKN035CB
      TEMPO 2423/2503 5SM TSRA OVC015CB
     FM250300 36010KT P6SM -TSRA OVC012CB
     FM250800 34014G20KT P6SM -SHRA OVC007=

USA.gov is the U.S. government's official web portal to all federal, state and local government web resources and services.